sensor_id;sensor_type;location;lat;lon;timestamp;pressure;altitude;pressure_sealevel;temperature;humidity
79705;BME280;69940;53.120;8.764;2023-06-24T00:01:18;102469.00;;;19.11;72.24
79705;BME280;69940;53.120;8.764;2023-06-24T00:03:49;102469.00;;;19.09;72.33
79705;BME280;69940;53.120;8.764;2023-06-24T00:06:19;102470.00;;;19.08;72.45
79705;BME280;69940;53.120;8.764;2023-06-24T00:08:48;102471.00;;;19.06;72.62
79705;BME280;69940;53.120;8.764;2023-06-24T00:11:18;102471.00;;;19.05;72.64
79705;BME280;69940;53.120;8.764;2023-06-24T00:13:48;102472.00;;;19.03;72.87
79705;BME280;69940;53.120;8.764;2023-06-24T00:16:18;102472.00;;;19.01;73.04
79705;BME280;69940;53.120;8.764;2023-06-24T00:18:48;102471.00;;;18.99;73.12
79705;BME280;69940;53.120;8.764;2023-06-24T00:21:18;102470.00;;;18.96;73.31
79705;BME280;69940;53.120;8.764;2023-06-24T00:23:50;102471.00;;;18.93;73.39
79705;BME280;69940;53.120;8.764;2023-06-24T00:26:18;102472.00;;;18.91;73.44
79705;BME280;69940;53.120;8.764;2023-06-24T00:28:48;102472.00;;;18.89;73.59
79705;BME280;69940;53.120;8.764;2023-06-24T00:31:18;102472.00;;;18.87;73.79
79705;BME280;69940;53.120;8.764;2023-06-24T00:33:52;102472.00;;;18.84;74.08
79705;BME280;69940;53.120;8.764;2023-06-24T00:36:18;102471.00;;;18.79;74.46
79705;BME280;69940;53.120;8.764;2023-06-24T00:38:49;102470.00;;;18.74;74.59
79705;BME280;69940;53.120;8.764;2023-06-24T00:41:20;102470.00;;;18.71;74.63
79705;BME280;69940;53.120;8.764;2023-06-24T00:43:48;102471.00;;;18.67;74.71
79705;BME280;69940;53.120;8.764;2023-06-24T00:46:20;102471.00;;;18.63;75.04
79705;BME280;69940;53.120;8.764;2023-06-24T00:48:48;102471.00;;;18.59;74.95
79705;BME280;69940;53.120;8.764;2023-06-24T00:51:22;102471.00;;;18.56;75.00
79705;BME280;69940;53.120;8.764;2023-06-24T00:53:48;102470.00;;;18.53;75.21
79705;BME280;69940;53.120;8.764;2023-06-24T00:56:21;102471.00;;;18.50;75.19
79705;BME280;69940;53.120;8.764;2023-06-24T00:58:49;102471.00;;;18.48;75.24
79705;BME280;69940;53.120;8.764;2023-06-24T01:01:19;102470.00;;;18.43;75.61
79705;BME280;69940;53.120;8.764;2023-06-24T01:03:48;102471.00;;;18.37;76.12
79705;BME280;69940;53.120;8.764;2023-06-24T01:06:18;102470.00;;;18.32;76.16
79705;BME280;69940;53.120;8.764;2023-06-24T01:09:00;102470.00;;;18.29;76.25
79705;BME280;69940;53.120;8.764;2023-06-24T01:11:18;102472.00;;;18.25;76.40
79705;BME280;69940;53.120;8.764;2023-06-24T01:13:48;102473.00;;;18.21;76.51
79705;BME280;69940;53.120;8.764;2023-06-24T01:16:28;102474.00;;;18.18;76.50
79705;BME280;69940;53.120;8.764;2023-06-24T01:18:52;102474.00;;;18.15;76.55
79705;BME280;69940;53.120;8.764;2023-06-24T01:26:52;102478.00;;;18.00;77.35
79705;BME280;69940;53.120;8.764;2023-06-24T01:31:31;102479.00;;;17.92;77.56
79705;BME280;69940;53.120;8.764;2023-06-24T01:34:05;102479.00;;;17.91;77.62
79705;BME280;69940;53.120;8.764;2023-06-24T01:36:19;102479.00;;;17.90;77.38
79705;BME280;69940;53.120;8.764;2023-06-24T01:38:52;102480.00;;;17.89;77.32
79705;BME280;69940;53.120;8.764;2023-06-24T01:41:22;102479.00;;;17.88;77.67
79705;BME280;69940;53.120;8.764;2023-06-24T01:43:50;102479.00;;;17.88;77.61
79705;BME280;69940;53.120;8.764;2023-06-24T01:46:22;102480.00;;;17.88;77.58
79705;BME280;69940;53.120;8.764;2023-06-24T01:48:48;102480.00;;;17.87;77.69
79705;BME280;69940;53.120;8.764;2023-06-24T01:51:19;102481.00;;;17.88;77.55
79705;BME280;69940;53.120;8.764;2023-06-24T01:53:51;102482.00;;;17.88;77.27
79705;BME280;69940;53.120;8.764;2023-06-24T01:56:20;102482.00;;;17.89;76.80
79705;BME280;69940;53.120;8.764;2023-06-24T01:58:50;102481.00;;;17.89;76.82
79705;BME280;69940;53.120;8.764;2023-06-24T02:01:19;102480.00;;;17.89;76.89
79705;BME280;69940;53.120;8.764;2023-06-24T02:03:49;102479.00;;;17.89;76.84
79705;BME280;69940;53.120;8.764;2023-06-24T02:06:19;102477.00;;;17.88;76.91
79705;BME280;69940;53.120;8.764;2023-06-24T02:08:50;102476.00;;;17.87;76.86
79705;BME280;69940;53.120;8.764;2023-06-24T02:11:19;102476.00;;;17.87;77.11
79705;BME280;69940;53.120;8.764;2023-06-24T02:13:49;102476.00;;;17.86;77.17
79705;BME280;69940;53.120;8.764;2023-06-24T02:16:20;102476.00;;;17.85;77.29
79705;BME280;69940;53.120;8.764;2023-06-24T02:18:49;102475.00;;;17.84;77.28
79705;BME280;69940;53.120;8.764;2023-06-24T02:21:21;102475.00;;;17.83;76.97
79705;BME280;69940;53.120;8.764;2023-06-24T02:23:49;102475.00;;;17.83;76.85
79705;BME280;69940;53.120;8.764;2023-06-24T02:26:19;102475.00;;;17.83;76.79
79705;BME280;69940;53.120;8.764;2023-06-24T02:28:49;102476.00;;;17.82;77.04
79705;BME280;69940;53.120;8.764;2023-06-24T02:31:18;102477.00;;;17.77;77.38
79705;BME280;69940;53.120;8.764;2023-06-24T02:33:48;102477.00;;;17.70;77.87
79705;BME280;69940;53.120;8.764;2023-06-24T02:36:18;102478.00;;;17.63;78.19
79705;BME280;69940;53.120;8.764;2023-06-24T02:38:48;102478.00;;;17.56;78.50
79705;BME280;69940;53.120;8.764;2023-06-24T02:41:18;102478.00;;;17.48;78.75
79705;BME280;69940;53.120;8.764;2023-06-24T02:43:48;102480.00;;;17.42;79.04
79705;BME280;69940;53.120;8.764;2023-06-24T02:46:19;102480.00;;;17.38;79.21
79705;BME280;69940;53.120;8.764;2023-06-24T02:48:49;102480.00;;;17.37;79.05
79705;BME280;69940;53.120;8.764;2023-06-24T02:51:18;102479.00;;;17.36;78.98
79705;BME280;69940;53.120;8.764;2023-06-24T02:53:49;102480.00;;;17.36;78.90
79705;BME280;69940;53.120;8.764;2023-06-24T02:56:21;102480.00;;;17.35;79.07
79705;BME280;69940;53.120;8.764;2023-06-24T02:58:49;102481.00;;;17.35;79.23
79705;BME280;69940;53.120;8.764;2023-06-24T03:01:19;102483.00;;;17.35;79.31
79705;BME280;69940;53.120;8.764;2023-06-24T03:03:53;102485.00;;;17.36;79.22
79705;BME280;69940;53.120;8.764;2023-06-24T03:06:18;102487.00;;;17.38;79.02
79705;BME280;69940;53.120;8.764;2023-06-24T03:08:49;102489.00;;;17.39;79.00
79705;BME280;69940;53.120;8.764;2023-06-24T03:11:18;102489.00;;;17.40;79.22
79705;BME280;69940;53.120;8.764;2023-06-24T03:13:47;102492.00;;;17.39;79.25
79705;BME280;69940;53.120;8.764;2023-06-24T03:16:18;102494.00;;;17.39;79.22
79705;BME280;69940;53.120;8.764;2023-06-24T03:18:48;102496.00;;;17.40;79.17
79705;BME280;69940;53.120;8.764;2023-06-24T03:21:18;102499.00;;;17.39;79.40
79705;BME280;69940;53.120;8.764;2023-06-24T03:23:48;102502.00;;;17.39;79.38
79705;BME280;69940;53.120;8.764;2023-06-24T03:26:18;102505.00;;;17.41;79.21
79705;BME280;69940;53.120;8.764;2023-06-24T03:28:49;102506.00;;;17.43;79.23
79705;BME280;69940;53.120;8.764;2023-06-24T03:31:18;102508.00;;;17.46;79.12
79705;BME280;69940;53.120;8.764;2023-06-24T03:33:48;102508.00;;;17.46;79.31
79705;BME280;69940;53.120;8.764;2023-06-24T03:36:18;102509.00;;;17.45;79.52
79705;BME280;69940;53.120;8.764;2023-06-24T03:38:48;102510.00;;;17.44;79.62
79705;BME280;69940;53.120;8.764;2023-06-24T03:41:18;102512.00;;;17.43;79.66
79705;BME280;69940;53.120;8.764;2023-06-24T03:43:48;102513.00;;;17.43;79.63
79705;BME280;69940;53.120;8.764;2023-06-24T03:46:18;102515.00;;;17.44;79.61
79705;BME280;69940;53.120;8.764;2023-06-24T03:48:50;102517.00;;;17.46;79.44
79705;BME280;69940;53.120;8.764;2023-06-24T03:51:18;102519.00;;;17.49;79.36
79705;BME280;69940;53.120;8.764;2023-06-24T03:53:48;102521.00;;;17.51;79.32
79705;BME280;69940;53.120;8.764;2023-06-24T03:56:18;102521.00;;;17.53;79.21
79705;BME280;69940;53.120;8.764;2023-06-24T03:58:48;102522.00;;;17.55;79.26
79705;BME280;69940;53.120;8.764;2023-06-24T04:01:21;102522.00;;;17.56;79.23
79705;BME280;69940;53.120;8.764;2023-06-24T04:03:48;102523.00;;;17.57;79.28
79705;BME280;69940;53.120;8.764;2023-06-24T04:06:18;102522.00;;;17.58;79.27
79705;BME280;69940;53.120;8.764;2023-06-24T04:08:49;102522.00;;;17.59;79.15
79705;BME280;69940;53.120;8.764;2023-06-24T04:11:18;102522.00;;;17.61;79.09
79705;BME280;69940;53.120;8.764;2023-06-24T04:13:50;102524.00;;;17.63;79.08
79705;BME280;69940;53.120;8.764;2023-06-24T04:16:18;102526.00;;;17.65;79.04
79705;BME280;69940;53.120;8.764;2023-06-24T04:18:48;102528.00;;;17.66;79.03
79705;BME280;69940;53.120;8.764;2023-06-24T04:21:18;102531.00;;;17.67;79.14
79705;BME280;69940;53.120;8.764;2023-06-24T04:23:48;102534.00;;;17.69;79.10
79705;BME280;69940;53.120;8.764;2023-06-24T04:26:18;102536.00;;;17.71;78.99
79705;BME280;69940;53.120;8.764;2023-06-24T04:28:48;102535.00;;;17.73;78.96
79705;BME280;69940;53.120;8.764;2023-06-24T04:31:18;102534.00;;;17.76;78.93
79705;BME280;69940;53.120;8.764;2023-06-24T04:33:48;102534.00;;;17.78;78.89
79705;BME280;69940;53.120;8.764;2023-06-24T04:36:18;102534.00;;;17.81;78.83
79705;BME280;69940;53.120;8.764;2023-06-24T04:38:48;102534.00;;;17.83;78.80
79705;BME280;69940;53.120;8.764;2023-06-24T04:41:20;102535.00;;;17.84;78.84
79705;BME280;69940;53.120;8.764;2023-06-24T04:43:49;102536.00;;;17.87;78.75
79705;BME280;69940;53.120;8.764;2023-06-24T04:46:18;102537.00;;;17.89;78.56
79705;BME280;69940;53.120;8.764;2023-06-24T04:48:48;102538.00;;;17.90;78.60
79705;BME280;69940;53.120;8.764;2023-06-24T04:51:18;102538.00;;;17.91;78.58
79705;BME280;69940;53.120;8.764;2023-06-24T04:53:48;102538.00;;;17.92;78.67
79705;BME280;69940;53.120;8.764;2023-06-24T04:56:18;102538.00;;;17.93;78.68
79705;BME280;69940;53.120;8.764;2023-06-24T04:58:48;102537.00;;;17.94;78.62
79705;BME280;69940;53.120;8.764;2023-06-24T05:01:18;102537.00;;;17.96;78.44
79705;BME280;69940;53.120;8.764;2023-06-24T05:03:48;102537.00;;;17.97;78.38
79705;BME280;69940;53.120;8.764;2023-06-24T05:06:18;102535.00;;;17.98;78.46
79705;BME280;69940;53.120;8.764;2023-06-24T05:08:48;102532.00;;;18.00;78.40
79705;BME280;69940;53.120;8.764;2023-06-24T05:11:18;102531.00;;;18.02;78.36
79705;BME280;69940;53.120;8.764;2023-06-24T05:13:48;102529.00;;;18.04;78.34
79705;BME280;69940;53.120;8.764;2023-06-24T05:16:18;102528.00;;;18.07;78.35
79705;BME280;69940;53.120;8.764;2023-06-24T05:18:48;102528.00;;;18.09;78.25
79705;BME280;69940;53.120;8.764;2023-06-24T05:21:18;102529.00;;;18.12;78.24
79705;BME280;69940;53.120;8.764;2023-06-24T05:23:48;102529.00;;;18.15;78.10
79705;BME280;69940;53.120;8.764;2023-06-24T05:26:18;102529.00;;;18.18;77.98
79705;BME280;69940;53.120;8.764;2023-06-24T05:28:48;102530.00;;;18.20;77.97
79705;BME280;69940;53.120;8.764;2023-06-24T05:31:19;102530.00;;;18.23;77.90
79705;BME280;69940;53.120;8.764;2023-06-24T05:33:48;102528.00;;;18.26;77.98
79705;BME280;69940;53.120;8.764;2023-06-24T05:36:18;102526.00;;;18.29;77.90
79705;BME280;69940;53.120;8.764;2023-06-24T05:38:49;102523.00;;;18.32;77.75
79705;BME280;69940;53.120;8.764;2023-06-24T05:41:18;102521.00;;;18.35;77.79
79705;BME280;69940;53.120;8.764;2023-06-24T05:43:48;102519.00;;;18.38;77.67
79705;BME280;69940;53.120;8.764;2023-06-24T05:46:18;102516.00;;;18.41;77.61
79705;BME280;69940;53.120;8.764;2023-06-24T05:48:48;102514.00;;;18.44;77.51
79705;BME280;69940;53.120;8.764;2023-06-24T05:51:18;102512.00;;;18.46;77.56
79705;BME280;69940;53.120;8.764;2023-06-24T05:53:48;102511.00;;;18.50;77.39
79705;BME280;69940;53.120;8.764;2023-06-24T05:56:19;102510.00;;;18.53;77.24
79705;BME280;69940;53.120;8.764;2023-06-24T05:58:49;102509.00;;;18.56;77.31
79705;BME280;69940;53.120;8.764;2023-06-24T06:01:18;102508.00;;;18.59;77.05
79705;BME280;69940;53.120;8.764;2023-06-24T06:03:48;102509.00;;;18.62;77.04
79705;BME280;69940;53.120;8.764;2023-06-24T06:06:18;102510.00;;;18.65;77.06
79705;BME280;69940;53.120;8.764;2023-06-24T06:08:48;102510.00;;;18.68;77.08
79705;BME280;69940;53.120;8.764;2023-06-24T06:11:18;102513.00;;;18.71;76.95
79705;BME280;69940;53.120;8.764;2023-06-24T06:13:48;102516.00;;;18.75;76.97
79705;BME280;69940;53.120;8.764;2023-06-24T06:16:18;102520.00;;;18.78;76.65
79705;BME280;69940;53.120;8.764;2023-06-24T06:18:48;102525.00;;;18.81;76.44
79705;BME280;69940;53.120;8.764;2023-06-24T06:21:18;102529.00;;;18.84;76.15
79705;BME280;69940;53.120;8.764;2023-06-24T06:23:48;102534.00;;;18.87;75.55
79705;BME280;69940;53.120;8.764;2023-06-24T06:26:18;102537.00;;;18.90;75.12
79705;BME280;69940;53.120;8.764;2023-06-24T06:28:48;102539.00;;;18.93;74.81
79705;BME280;69940;53.120;8.764;2023-06-24T06:31:18;102540.00;;;18.97;74.42
79705;BME280;69940;53.120;8.764;2023-06-24T06:33:48;102542.00;;;19.00;74.56
79705;BME280;69940;53.120;8.764;2023-06-24T06:36:18;102543.00;;;19.03;74.52
79705;BME280;69940;53.120;8.764;2023-06-24T06:38:48;102544.00;;;19.06;74.26
79705;BME280;69940;53.120;8.764;2023-06-24T06:41:25;102546.00;;;19.09;74.17
79705;BME280;69940;53.120;8.764;2023-06-24T06:43:48;102547.00;;;19.13;74.15
79705;BME280;69940;53.120;8.764;2023-06-24T06:46:18;102548.00;;;19.16;73.35
79705;BME280;69940;53.120;8.764;2023-06-24T06:48:48;102547.00;;;19.18;73.37
79705;BME280;69940;53.120;8.764;2023-06-24T06:51:19;102547.00;;;19.22;73.59
79705;BME280;69940;53.120;8.764;2023-06-24T06:53:48;102547.00;;;19.27;73.57
79705;BME280;69940;53.120;8.764;2023-06-24T06:56:23;102548.00;;;19.31;73.42
79705;BME280;69940;53.120;8.764;2023-06-24T06:58:48;102549.00;;;19.35;73.45
79705;BME280;69940;53.120;8.764;2023-06-24T07:01:18;102549.00;;;19.40;73.29
79705;BME280;69940;53.120;8.764;2023-06-24T07:03:49;102548.00;;;19.44;73.08
79705;BME280;69940;53.120;8.764;2023-06-24T07:06:19;102549.00;;;19.48;72.89
79705;BME280;69940;53.120;8.764;2023-06-24T07:08:48;102549.00;;;19.53;72.05
79705;BME280;69940;53.120;8.764;2023-06-24T07:11:18;102549.00;;;19.57;71.72
79705;BME280;69940;53.120;8.764;2023-06-24T07:13:52;102548.00;;;19.60;71.17
79705;BME280;69940;53.120;8.764;2023-06-24T07:16:18;102548.00;;;19.64;70.72
79705;BME280;69940;53.120;8.764;2023-06-24T07:18:48;102549.00;;;19.67;70.98
79705;BME280;69940;53.120;8.764;2023-06-24T07:21:18;102549.00;;;19.70;70.90
79705;BME280;69940;53.120;8.764;2023-06-24T07:23:48;102549.00;;;19.73;70.10
79705;BME280;69940;53.120;8.764;2023-06-24T07:26:18;102548.00;;;19.77;70.03
79705;BME280;69940;53.120;8.764;2023-06-24T07:28:48;102548.00;;;19.80;70.38
79705;BME280;69940;53.120;8.764;2023-06-24T07:31:18;102548.00;;;19.84;70.34
79705;BME280;69940;53.120;8.764;2023-06-24T07:33:48;102547.00;;;19.87;70.05
79705;BME280;69940;53.120;8.764;2023-06-24T07:36:18;102546.00;;;19.90;69.97
79705;BME280;69940;53.120;8.764;2023-06-24T07:38:48;102546.00;;;19.94;69.99
79705;BME280;69940;53.120;8.764;2023-06-24T07:41:18;102546.00;;;19.98;70.30
79705;BME280;69940;53.120;8.764;2023-06-24T07:43:48;102547.00;;;20.03;70.33
79705;BME280;69940;53.120;8.764;2023-06-24T07:46:18;102549.00;;;20.08;70.68
79705;BME280;69940;53.120;8.764;2023-06-24T07:48:48;102549.00;;;20.13;70.32
79705;BME280;69940;53.120;8.764;2023-06-24T07:51:19;102549.00;;;20.18;70.32
79705;BME280;69940;53.120;8.764;2023-06-24T07:53:48;102551.00;;;20.23;70.16
79705;BME280;69940;53.120;8.764;2023-06-24T07:56:18;102550.00;;;20.27;69.65
79705;BME280;69940;53.120;8.764;2023-06-24T07:58:48;102550.00;;;20.32;69.70
79705;BME280;69940;53.120;8.764;2023-06-24T08:01:18;102549.00;;;20.36;69.26
79705;BME280;69940;53.120;8.764;2023-06-24T08:03:48;102549.00;;;20.41;69.28
79705;BME280;69940;53.120;8.764;2023-06-24T08:06:18;102549.00;;;20.46;68.96
79705;BME280;69940;53.120;8.764;2023-06-24T08:08:48;102549.00;;;20.51;68.83
79705;BME280;69940;53.120;8.764;2023-06-24T08:11:18;102549.00;;;20.57;68.68
79705;BME280;69940;53.120;8.764;2023-06-24T08:13:48;102548.00;;;20.63;69.10
79705;BME280;69940;53.120;8.764;2023-06-24T08:16:21;102546.00;;;20.69;68.61
79705;BME280;69940;53.120;8.764;2023-06-24T08:18:48;102545.00;;;20.76;67.92
79705;BME280;69940;53.120;8.764;2023-06-24T08:21:18;102543.00;;;20.83;66.99
79705;BME280;69940;53.120;8.764;2023-06-24T08:23:51;102539.00;;;20.91;66.39
79705;BME280;69940;53.120;8.764;2023-06-24T08:26:21;102537.00;;;20.99;66.31
79705;BME280;69940;53.120;8.764;2023-06-24T08:28:48;102534.00;;;21.08;65.70
79705;BME280;69940;53.120;8.764;2023-06-24T08:31:18;102532.00;;;21.17;64.61
79705;BME280;69940;53.120;8.764;2023-06-24T08:33:51;102531.00;;;21.25;64.55
79705;BME280;69940;53.120;8.764;2023-06-24T08:36:18;102529.00;;;21.33;64.69
79705;BME280;69940;53.120;8.764;2023-06-24T08:38:48;102529.00;;;21.40;64.79
79705;BME280;69940;53.120;8.764;2023-06-24T08:41:18;102529.00;;;21.47;64.10
79705;BME280;69940;53.120;8.764;2023-06-24T08:43:48;102530.00;;;21.54;63.86
79705;BME280;69940;53.120;8.764;2023-06-24T08:46:19;102530.00;;;21.60;63.57
79705;BME280;69940;53.120;8.764;2023-06-24T08:48:54;102529.00;;;21.66;63.55
79705;BME280;69940;53.120;8.764;2023-06-24T08:51:20;102527.00;;;21.72;62.98
79705;BME280;69940;53.120;8.764;2023-06-24T08:53:48;102525.00;;;21.78;62.83
79705;BME280;69940;53.120;8.764;2023-06-24T08:56:18;102523.00;;;21.83;62.39
79705;BME280;69940;53.120;8.764;2023-06-24T08:58:48;102521.00;;;21.88;62.25
79705;BME280;69940;53.120;8.764;2023-06-24T09:01:18;102521.00;;;21.91;61.92
79705;BME280;69940;53.120;8.764;2023-06-24T09:03:48;102521.00;;;21.94;61.23
79705;BME280;69940;53.120;8.764;2023-06-24T09:06:18;102520.00;;;21.97;61.67
79705;BME280;69940;53.120;8.764;2023-06-24T09:08:55;102521.00;;;22.00;61.78
79705;BME280;69940;53.120;8.764;2023-06-24T09:11:21;102521.00;;;22.02;61.46
79705;BME280;69940;53.120;8.764;2023-06-24T09:13:56;102523.00;;;22.05;61.98
79705;BME280;69940;53.120;8.764;2023-06-24T09:16:18;102524.00;;;22.07;62.10
79705;BME280;69940;53.120;8.764;2023-06-24T09:18:49;102523.00;;;22.09;61.34
79705;BME280;69940;53.120;8.764;2023-06-24T09:21:27;102523.00;;;22.09;61.08
79705;BME280;69940;53.120;8.764;2023-06-24T09:23:59;102523.00;;;22.10;60.75
79705;BME280;69940;53.120;8.764;2023-06-24T09:26:24;102521.00;;;22.12;60.27
79705;BME280;69940;53.120;8.764;2023-06-24T09:28:48;102517.00;;;22.13;60.38
79705;BME280;69940;53.120;8.764;2023-06-24T09:31:27;102514.00;;;22.15;60.11
79705;BME280;69940;53.120;8.764;2023-06-24T09:33:58;102509.00;;;22.17;59.90
79705;BME280;69940;53.120;8.764;2023-06-24T09:38:49;102495.00;;;23.52;60.18
79705;BME280;69940;53.120;8.764;2023-06-24T09:41:24;102495.00;;;23.20;60.30
79705;BME280;69940;53.120;8.764;2023-06-24T09:43:49;102495.00;;;22.98;60.01
79705;BME280;69940;53.120;8.764;2023-06-24T09:46:14;102494.00;;;22.82;60.22
79705;BME280;69940;53.120;8.764;2023-06-24T09:48:44;102494.00;;;22.72;60.47
79705;BME280;69940;53.120;8.764;2023-06-24T09:51:14;102493.00;;;22.65;60.27
79705;BME280;69940;53.120;8.764;2023-06-24T09:53:44;102494.00;;;22.61;60.06
79705;BME280;69940;53.120;8.764;2023-06-24T09:56:15;102491.00;;;22.59;59.88
79705;BME280;69940;53.120;8.764;2023-06-24T09:58:44;102488.00;;;22.58;60.19
79705;BME280;69940;53.120;8.764;2023-06-24T10:01:14;102486.00;;;22.57;59.71
79705;BME280;69940;53.120;8.764;2023-06-24T10:03:44;102483.00;;;22.58;59.83
79705;BME280;69940;53.120;8.764;2023-06-24T10:06:18;102480.00;;;22.60;59.88
79705;BME280;69940;53.120;8.764;2023-06-24T10:08:44;102478.00;;;22.62;59.91
79705;BME280;69940;53.120;8.764;2023-06-24T10:11:14;102475.00;;;22.63;60.10
79705;BME280;69940;53.120;8.764;2023-06-24T10:13:48;102472.00;;;22.65;60.06
79705;BME280;69940;53.120;8.764;2023-06-24T10:16:15;102470.00;;;22.68;59.59
79705;BME280;69940;53.120;8.764;2023-06-24T10:18:44;102469.00;;;22.70;59.73
79705;BME280;69940;53.120;8.764;2023-06-24T10:21:15;102467.00;;;22.72;59.51
79705;BME280;69940;53.120;8.764;2023-06-24T10:23:52;102465.00;;;22.74;59.83
79705;BME280;69940;53.120;8.764;2023-06-24T10:26:25;102463.00;;;22.77;59.89
79705;BME280;69940;53.120;8.764;2023-06-24T10:29:09;102461.00;;;22.80;60.01
79705;BME280;69940;53.120;8.764;2023-06-24T10:31:14;102459.00;;;22.83;59.73
79705;BME280;69940;53.120;8.764;2023-06-24T10:33:52;102456.00;;;22.86;59.67
79705;BME280;69940;53.120;8.764;2023-06-24T10:36:31;102453.00;;;22.89;59.66
79705;BME280;69940;53.120;8.764;2023-06-24T10:38:55;102449.00;;;22.91;59.34
79705;BME280;69940;53.120;8.764;2023-06-24T10:41:17;102445.00;;;22.93;59.15
79705;BME280;69940;53.120;8.764;2023-06-24T10:43:44;102441.00;;;22.96;59.06
79705;BME280;69940;53.120;8.764;2023-06-24T10:46:16;102438.00;;;22.99;59.19
79705;BME280;69940;53.120;8.764;2023-06-24T10:48:43;102435.00;;;23.03;59.54
79705;BME280;69940;53.120;8.764;2023-06-24T10:51:14;102433.00;;;23.07;59.30
79705;BME280;69940;53.120;8.764;2023-06-24T10:53:44;102433.00;;;23.12;59.24
79705;BME280;69940;53.120;8.764;2023-06-24T10:56:14;102433.00;;;23.16;58.81
79705;BME280;69940;53.120;8.764;2023-06-24T10:58:55;102432.00;;;23.21;58.94
79705;BME280;69940;53.120;8.764;2023-06-24T11:01:16;102431.00;;;23.26;58.98
79705;BME280;69940;53.120;8.764;2023-06-24T11:03:43;102430.00;;;23.31;58.60
79705;BME280;69940;53.120;8.764;2023-06-24T11:06:14;102429.00;;;23.35;58.63
79705;BME280;69940;53.120;8.764;2023-06-24T11:08:44;102428.00;;;23.40;58.75
79705;BME280;69940;53.120;8.764;2023-06-24T11:11:18;102427.00;;;23.45;59.45
79705;BME280;69940;53.120;8.764;2023-06-24T11:13:43;102425.00;;;23.51;58.80
79705;BME280;69940;53.120;8.764;2023-06-24T11:16:14;102424.00;;;23.57;58.36
79705;BME280;69940;53.120;8.764;2023-06-24T11:18:43;102421.00;;;23.66;57.92
79705;BME280;69940;53.120;8.764;2023-06-24T11:21:14;102420.00;;;23.77;57.26
79705;BME280;69940;53.120;8.764;2023-06-24T11:23:43;102420.00;;;23.88;57.41
79705;BME280;69940;53.120;8.764;2023-06-24T11:26:15;102419.00;;;24.00;57.13
79705;BME280;69940;53.120;8.764;2023-06-24T11:28:43;102420.00;;;24.11;56.95
79705;BME280;69940;53.120;8.764;2023-06-24T11:31:15;102417.00;;;24.21;57.17
79705;BME280;69940;53.120;8.764;2023-06-24T11:33:48;102414.00;;;24.32;56.38
79705;BME280;69940;53.120;8.764;2023-06-24T11:36:16;102412.00;;;24.44;56.36
79705;BME280;69940;53.120;8.764;2023-06-24T11:38:45;102410.00;;;24.56;55.94
79705;BME280;69940;53.120;8.764;2023-06-24T11:41:14;102409.00;;;24.68;55.13
79705;BME280;69940;53.120;8.764;2023-06-24T11:43:46;102409.00;;;24.79;55.05
79705;BME280;69940;53.120;8.764;2023-06-24T11:46:30;102407.00;;;24.89;54.52
79705;BME280;69940;53.120;8.764;2023-06-24T11:48:43;102405.00;;;24.99;53.98
79705;BME280;69940;53.120;8.764;2023-06-24T11:51:14;102403.00;;;25.07;54.14
79705;BME280;69940;53.120;8.764;2023-06-24T11:53:46;102402.00;;;25.11;52.97
79705;BME280;69940;53.120;8.764;2023-06-24T11:56:14;102400.00;;;25.14;52.41
79705;BME280;69940;53.120;8.764;2023-06-24T11:58:45;102399.00;;;25.15;52.74
79705;BME280;69940;53.120;8.764;2023-06-24T12:01:14;102397.00;;;25.14;52.99
79705;BME280;69940;53.120;8.764;2023-06-24T12:03:43;102396.00;;;25.14;53.58
79705;BME280;69940;53.120;8.764;2023-06-24T12:06:14;102395.00;;;25.15;54.24
79705;BME280;69940;53.120;8.764;2023-06-24T12:08:43;102393.00;;;25.19;53.81
79705;BME280;69940;53.120;8.764;2023-06-24T12:11:13;102391.00;;;25.23;52.84
79705;BME280;69940;53.120;8.764;2023-06-24T12:13:43;102390.00;;;25.27;52.60
79705;BME280;69940;53.120;8.764;2023-06-24T12:16:13;102388.00;;;25.28;52.32
79705;BME280;69940;53.120;8.764;2023-06-24T12:18:44;102385.00;;;25.28;51.81
79705;BME280;69940;53.120;8.764;2023-06-24T12:21:13;102384.00;;;25.25;52.50
79705;BME280;69940;53.120;8.764;2023-06-24T12:23:44;102382.00;;;25.22;52.46
79705;BME280;69940;53.120;8.764;2023-06-24T12:26:14;102380.00;;;25.19;52.03
79705;BME280;69940;53.120;8.764;2023-06-24T12:28:43;102379.00;;;25.17;52.12
79705;BME280;69940;53.120;8.764;2023-06-24T12:31:13;102378.00;;;25.18;51.83
79705;BME280;69940;53.120;8.764;2023-06-24T12:33:43;102377.00;;;25.22;51.32
79705;BME280;69940;53.120;8.764;2023-06-24T12:36:14;102376.00;;;25.28;51.19
79705;BME280;69940;53.120;8.764;2023-06-24T12:38:44;102375.00;;;25.36;51.68
79705;BME280;69940;53.120;8.764;2023-06-24T12:41:13;102374.00;;;25.44;51.83
79705;BME280;69940;53.120;8.764;2023-06-24T12:43:43;102374.00;;;25.50;51.27
79705;BME280;69940;53.120;8.764;2023-06-24T12:46:14;102373.00;;;25.57;51.21
79705;BME280;69940;53.120;8.764;2023-06-24T12:48:45;102370.00;;;25.63;51.21
79705;BME280;69940;53.120;8.764;2023-06-24T12:51:14;102367.00;;;25.70;51.62
79705;BME280;69940;53.120;8.764;2023-06-24T12:53:43;102365.00;;;25.75;52.02
79705;BME280;69940;53.120;8.764;2023-06-24T12:56:13;102365.00;;;25.79;51.84
79705;BME280;69940;53.120;8.764;2023-06-24T12:58:43;102364.00;;;25.84;51.77
79705;BME280;69940;53.120;8.764;2023-06-24T13:01:14;102364.00;;;25.88;52.05
79705;BME280;69940;53.120;8.764;2023-06-24T13:03:43;102364.00;;;25.89;51.99
79705;BME280;69940;53.120;8.764;2023-06-24T13:06:15;102364.00;;;25.89;52.26
79705;BME280;69940;53.120;8.764;2023-06-24T13:08:44;102364.00;;;25.89;51.63
79705;BME280;69940;53.120;8.764;2023-06-24T13:11:13;102365.00;;;25.88;51.56
79705;BME280;69940;53.120;8.764;2023-06-24T13:13:44;102365.00;;;25.86;51.64